CheckWX is a tool to help pilots better visualize weather data.  It is not intended as a substitute for an official pre-flight weather briefing.

15:09:53 UTC

KMGC METAR
Michigan City Municipal-Phillips Field Airport
Michigan City, Indiana, USA
Current

15 mins ago

KMGC 291455Z AUTO 23019G31KT 10SM SCT023 OVC028 07/07 A2957 RMK AO2
Observed
Mar-29 @ 14:55 UTC
Wind
  • 230° at 19 KTS
  • Gusting to 31 KTS
Visibility
10 SM
Flight Rules
MVFR
Cloud Levels
  • Scattered at 2,300' AGL
  • Overcast at 2,800' AGL
Temperature
C / 45°F
Dewpoint
C / 45°F
Humidity
100%
Altimeter
29.57" Hg
Pressure
1001.32 hPa
Previous

35 mins ago

KMGC 291435Z AUTO 22022G28KT 10SM -DZ BKN023 OVC037 07/07 A2956 RMK AO2
Observed
Mar-29 @ 14:35 UTC
Wind
  • 220° at 22 KTS
  • Gusting to 28 KTS
Visibility
10 SM
Flight Rules
MVFR
Conditions
Light Drizzle
Cloud Levels
  • Broken at 2,300' AGL
  • Overcast at 3,700' AGL
Temperature
C / 45°F
Dewpoint
C / 45°F
Humidity
100%
Altimeter
29.56" Hg
Pressure
1001.02 hPa
Previous

55 mins ago

KMGC 291415Z AUTO 23020G36KT 7SM -RA BKN025 BKN030 OVC035 07/07 A2956 RMK AO2
Observed
Mar-29 @ 14:15 UTC
Wind
  • 230° at 20 KTS
  • Gusting to 36 KTS
Visibility
7 SM
Flight Rules
MVFR
Conditions
Light Rain
Cloud Levels
  • Broken at 2,500' AGL
  • Broken at 3,000' AGL
  • Overcast at 3,500' AGL
Temperature
C / 45°F
Dewpoint
C / 45°F
Humidity
100%
Altimeter
29.56" Hg
Pressure
1001.02 hPa